Time;durP1;ratioP1;P1;durP2;ratioP2;P2;SDS_P1;SDS_P2;PMS_P1;PMS_P2;Temp;Humidity;BMP_temperature;BMP_pressure;BME280_temperature;BME280_humidity;BME280_pressure;Samples;Min_cycle;Max_cycle;Signal;HPM_P1;HPM_P2
2023/10/27 00:00:49;;;;;;;0.10;0.10;;;13.80;99.90;;;;;;5115796;28;20464;-70
2023/10/27 00:03:15;;;;;;;0.00;0.00;;;13.60;99.90;;;;;;5115670;28;20076;-70
2023/10/27 00:05:41;;;;;;;0.20;0.20;;;13.50;99.90;;;;;;5115479;28;20415;-69
2023/10/27 00:08:06;;;;;;;0.10;0.10;;;13.50;99.90;;;;;;5107339;28;20103;-69
2023/10/27 00:10:36;;;;;;;0.00;0.00;;;13.50;99.90;;;;;;5108413;28;20387;-69
2023/10/27 00:13:01;;;;;;;0.00;0.00;;;13.40;99.90;;;;;;5115803;28;20031;-69
2023/10/27 00:15:27;;;;;;;0.08;0.08;;;13.40;99.90;;;;;;5115295;28;20115;-68
2023/10/27 00:17:56;;;;;;;1.35;0.63;;;13.40;99.90;;;;;;5115462;28;20053;-68
2023/10/27 00:20:22;;;;;;;0.20;0.20;;;13.60;99.90;;;;;;5113800;28;20082;-68
2023/10/27 00:22:48;;;;;;;0.00;0.00;;;13.60;99.90;;;;;;5115285;28;20360;-68
2023/10/27 00:25:14;;;;;;;0.00;0.00;;;13.60;99.90;;;;;;5114041;28;20051;-68
2023/10/27 00:27:40;;;;;;;6.03;4.85;;;13.60;99.90;;;;;;5115101;28;20019;-69
2023/10/27 00:30:07;;;;;;;0.00;0.00;;;13.70;99.90;;;;;;5115261;28;20035;-69
2023/10/27 00:32:33;;;;;;;0.05;0.05;;;13.70;99.90;;;;;;5114898;28;20039;-69
2023/10/27 00:34:59;;;;;;;0.00;0.00;;;13.70;99.90;;;;;;5113664;28;20023;-69
2023/10/27 00:37:24;;;;;;;0.10;0.10;;;13.80;99.90;;;;;;5113674;28;20434;-69
2023/10/27 00:39:51;;;;;;;0.00;0.00;;;13.90;99.90;;;;;;5113832;28;20491;-68
2023/10/27 00:42:17;;;;;;;0.05;0.05;;;13.80;99.90;;;;;;5113486;28;20030;-69
2023/10/27 00:44:43;;;;;;;0.00;0.00;;;13.90;99.90;;;;;;5114958;28;20040;-68
2023/10/27 00:47:09;;;;;;;0.00;0.00;;;13.70;99.90;;;;;;5114601;28;20034;-68
2023/10/27 00:49:35;;;;;;;0.00;0.00;;;13.70;99.90;;;;;;5113476;28;20035;-68
2023/10/27 00:52:02;;;;;;;0.00;0.00;;;13.60;99.90;;;;;;5114229;28;20012;-68
2023/10/27 00:54:28;;;;;;;0.20;0.20;;;13.70;99.90;;;;;;5113547;28;20031;-68
2023/10/27 00:56:55;;;;;;;0.10;0.10;;;13.80;99.90;;;;;;5113161;28;20023;-68
2023/10/27 00:59:23;;;;;;;0.00;0.00;;;13.80;99.90;;;;;;5114628;28;20449;-68
2023/10/27 01:01:49;;;;;;;0.20;0.20;;;13.90;99.90;;;;;;5114151;28;20030;-68
2023/10/27 01:04:14;;;;;;;0.00;0.00;;;13.80;99.90;;;;;;5114259;28;20027;-69
2023/10/27 01:06:40;;;;;;;0.28;0.28;;;13.60;99.90;;;;;;5112807;28;20122;-68
2023/10/27 01:09:07;;;;;;;0.05;0.05;;;13.50;99.90;;;;;;5098723;28;20012;-70
2023/10/27 01:11:34;;;;;;;0.15;0.15;;;13.40;99.90;;;;;;5080533;28;20042;-68
2023/10/27 01:14:00;;;;;;;4.78;1.38;;;13.30;99.90;;;;;;5097460;28;20394;-68
2023/10/27 01:16:25;;;;;;;0.00;0.00;;;13.20;99.90;;;;;;5098346;28;20461;-68
2023/10/27 01:18:51;;;;;;;0.32;0.32;;;13.30;99.90;;;;;;5108394;28;20115;-69
2023/10/27 01:21:17;;;;;;;0.00;0.00;;;13.50;99.90;;;;;;5104745;28;20035;-69
2023/10/27 01:23:43;;;;;;;0.20;0.20;;;13.50;99.90;;;;;;5112826;28;20024;-69
2023/10/27 01:26:08;;;;;;;0.03;0.03;;;13.40;99.90;;;;;;5112836;28;20043;-68
2023/10/27 01:28:34;;;;;;;0.25;0.25;;;13.50;99.90;;;;;;5099496;28;20035;-68
2023/10/27 01:31:00;;;;;;;0.03;0.03;;;13.50;99.90;;;;;;5112886;28;20027;-68
2023/10/27 01:33:26;;;;;;;0.30;0.30;;;13.60;99.90;;;;;;5112267;28;20019;-68
2023/10/27 01:35:52;;;;;;;0.00;0.00;;;13.60;99.90;;;;;;5092108;28;20064;-68
2023/10/27 01:38:19;;;;;;;0.52;0.52;;;13.70;99.90;;;;;;5112451;28;20081;-68
2023/10/27 01:40:46;;;;;;;0.00;0.00;;;13.60;99.90;;;;;;5113788;28;20395;-69
2023/10/27 01:43:13;;;;;;;0.32;0.32;;;13.60;99.90;;;;;;5113767;28;20036;-68
2023/10/27 01:45:38;;;;;;;0.43;0.28;;;13.70;99.90;;;;;;5099121;28;20492;-69
2023/10/27 01:48:04;;;;;;;0.00;0.00;;;13.70;99.90;;;;;;5112361;28;20027;-71
2023/10/27 01:50:30;;;;;;;0.00;0.00;;;13.70;99.90;;;;;;5113634;28;20066;-71
2023/10/27 01:52:55;;;;;;;0.00;0.00;;;13.60;99.90;;;;;;5112478;28;20020;-71
2023/10/27 01:55:24;;;;;;;0.10;0.10;;;13.60;99.90;;;;;;5113668;28;20380;-71
2023/10/27 01:57:50;;;;;;;0.05;0.05;;;13.70;99.90;;;;;;5112157;28;20072;-71
2023/10/27 02:00:16;;;;;;;0.10;0.10;;;13.80;99.90;;;;;;5112280;28;20391;-71
2023/10/27 02:02:42;;;;;;;0.00;0.00;;;13.90;99.90;;;;;;5110895;28;20024;-71
2023/10/27 02:05:08;;;;;;;0.00;0.00;;;13.80;99.90;;;;;;5112116;28;20036;-71
2023/10/27 02:07:34;;;;;;;0.00;0.00;;;13.90;99.90;;;;;;5111934;28;20032;-71
2023/10/27 02:10:00;;;;;;;0.00;0.00;;;13.90;99.90;;;;;;5112179;28;20086;-69
2023/10/27 02:12:26;;;;;;;0.22;0.22;;;13.90;99.90;;;;;;5111913;28;20439;-69
2023/10/27 02:14:52;;;;;;;0.00;0.00;;;13.80;99.90;;;;;;5113173;28;20460;-68
2023/10/27 02:17:18;;;;;;;0.00;0.00;;;14.00;99.90;;;;;;5095198;28;20028;-68
2023/10/27 02:19:44;;;;;;;0.00;0.00;;;13.90;99.90;;;;;;5097092;28;20036;-68
2023/10/27 02:22:10;;;;;;;0.38;0.35;;;13.80;99.90;;;;;;5112166;28;20024;-68
2023/10/27 02:24:37;;;;;;;0.00;0.00;;;13.80;99.90;;;;;;5111932;28;20484;-69
2023/10/27 02:27:03;;;;;;;0.05;0.05;;;13.80;99.90;;;;;;5113477;28;20442;-68
2023/10/27 02:29:29;;;;;;;0.00;0.00;;;13.90;99.90;;;;;;5111397;28;20111;-68
2023/10/27 02:31:55;;;;;;;0.03;0.03;;;13.80;99.90;;;;;;5112947;28;20373;-68
2023/10/27 02:34:21;;;;;;;1.75;1.65;;;13.90;99.90;;;;;;5113025;28;20070;-69
2023/10/27 02:36:47;;;;;;;0.00;0.00;;;14.00;99.90;;;;;;5113026;28;20020;-69
2023/10/27 02:39:13;;;;;;;0.00;0.00;;;13.80;99.90;;;;;;5111884;28;20055;-69
2023/10/27 02:41:38;;;;;;;0.08;0.08;;;13.80;99.90;;;;;;5094676;28;20024;-68
2023/10/27 02:44:05;;;;;;;0.10;0.10;;;13.80;99.90;;;;;;5112879;28;20030;-70
2023/10/27 02:46:32;;;;;;;0.00;0.00;;;13.90;99.90;;;;;;5113140;28;20209;-69
2023/10/27 02:48:58;;;;;;;2.03;1.92;;;13.90;99.90;;;;;;5112780;28;22115;-69
2023/10/27 02:51:25;;;;;;;0.00;0.00;;;14.00;99.90;;;;;;5111754;28;20032;-69
2023/10/27 02:53:51;;;;;;;0.10;0.10;;;14.00;99.90;;;;;;5112820;28;20090;-68
2023/10/27 02:56:17;;;;;;;0.00;0.00;;;14.00;99.90;;;;;;5111715;28;20112;-69
2023/10/27 02:58:42;;;;;;;0.00;0.00;;;14.00;99.90;;;;;;5111192;28;20020;-69
2023/10/27 03:01:10;;;;;;;0.75;0.75;;;14.00;99.90;;;;;;5112834;28;20022;-68
2023/10/27 03:03:36;;;;;;;0.00;0.00;;;13.90;99.90;;;;;;5112740;28;20047;-68
2023/10/27 03:06:03;;;;;;;0.17;0.17;;;13.70;99.90;;;;;;5111539;28;20031;-69
2023/10/27 03:08:30;;;;;;;0.00;0.00;;;13.60;99.90;;;;;;5111508;28;20464;-69
2023/10/27 03:10:56;;;;;;;0.00;0.00;;;13.60;99.90;;;;;;5111509;28;20032;-68
2023/10/27 03:13:22;;;;;;;0.00;0.00;;;13.80;99.90;;;;;;5111433;28;20482;-68
2023/10/27 03:15:48;;;;;;;0.00;0.00;;;13.80;99.90;;;;;;5106937;28;20116;-68
2023/10/27 03:18:13;;;;;;;0.00;0.00;;;13.90;99.90;;;;;;5113161;28;20024;-68
2023/10/27 03:20:39;;;;;;;0.00;0.00;;;14.00;99.90;;;;;;5102777;28;20024;-69
2023/10/27 03:23:05;;;;;;;0.00;0.00;;;13.90;99.90;;;;;;5115447;28;20081;-69
2023/10/27 03:25:31;;;;;;;0.20;0.20;;;13.80;99.90;;;;;;5116004;28;20034;-69
2023/10/27 03:27:56;;;;;;;0.00;0.00;;;13.70;99.90;;;;;;5116407;28;20020;-71
2023/10/27 03:30:23;;;;;;;0.00;0.00;;;13.90;99.90;;;;;;5114987;28;20027;-72
2023/10/27 03:32:48;;;;;;;0.00;0.00;;;13.90;99.90;;;;;;5115101;28;20019;-71
2023/10/27 03:35:15;;;;;;;0.05;0.05;;;14.00;99.90;;;;;;5116017;28;20369;-71
2023/10/27 03:37:41;;;;;;;0.00;0.00;;;14.10;99.90;;;;;;5116130;28;20024;-71
2023/10/27 03:40:07;;;;;;;0.03;0.03;;;14.00;99.90;;;;;;5116234;28;20024;-71
2023/10/27 03:42:34;;;;;;;0.00;0.00;;;14.10;99.90;;;;;;5114376;28;20015;-68
2023/10/27 03:45:00;;;;;;;0.00;0.00;;;14.00;99.90;;;;;;5115843;28;20042;-69
2023/10/27 03:47:26;;;;;;;0.00;0.00;;;13.90;99.90;;;;;;5115837;28;20019;-69
2023/10/27 03:49:52;;;;;;;0.00;0.00;;;13.90;99.90;;;;;;5114729;28;20891;-68
2023/10/27 03:52:17;;;;;;;0.38;0.28;;;13.90;99.90;;;;;;5116061;28;20028;-68
2023/10/27 03:54:43;;;;;;;0.03;0.03;;;13.80;99.90;;;;;;5114315;28;20032;-68
2023/10/27 03:57:10;;;;;;;0.00;0.00;;;13.80;99.90;;;;;;5115587;28;20068;-68
2023/10/27 03:59:35;;;;;;;0.00;0.00;;;13.90;99.90;;;;;;5115502;28;20372;-68
2023/10/27 04:02:01;;;;;;;0.22;0.22;;;14.00;99.90;;;;;;5115663;28;20032;-69
2023/10/27 04:04:27;;;;;;;0.20;0.20;;;14.00;99.90;;;;;;5114347;28;20047;-69
2023/10/27 04:06:54;;;;;;;0.10;0.10;;;14.00;99.90;;;;;;5097033;28;20019;-69
2023/10/27 04:09:21;;;;;;;0.00;0.00;;;13.90;99.90;;;;;;5115791;28;20073;-68
2023/10/27 04:11:47;;;;;;;0.00;0.00;;;13.90;99.90;;;;;;5114994;28;20024;-68
2023/10/27 04:14:13;;;;;;;0.00;0.00;;;13.90;99.90;;;;;;5115725;28;20430;-68
2023/10/27 04:16:38;;;;;;;0.00;0.00;;;13.70;99.90;;;;;;5115116;28;20032;-68
2023/10/27 04:19:04;;;;;;;0.00;0.00;;;13.60;99.90;;;;;;5105591;28;20031;-69
2023/10/27 04:21:30;;;;;;;0.10;0.10;;;13.70;99.90;;;;;;5109657;28;20027;-72
2023/10/27 04:23:56;;;;;;;0.00;0.00;;;13.70;99.90;;;;;;5115405;28;20027;-71
2023/10/27 04:26:22;;;;;;;0.05;0.05;;;13.80;99.90;;;;;;5114189;28;20100;-72
2023/10/27 04:28:47;;;;;;;0.00;0.00;;;13.80;99.90;;;;;;5115224;28;20527;-71
2023/10/27 04:31:13;;;;;;;0.00;0.00;;;13.80;99.90;;;;;;5115219;28;20024;-69
2023/10/27 04:33:39;;;;;;;1.85;1.65;;;13.80;99.90;;;;;;5115520;28;20383;-71
2023/10/27 04:36:05;;;;;;;0.00;0.00;;;13.70;99.90;;;;;;5115171;28;20027;-71
2023/10/27 04:38:31;;;;;;;0.00;0.00;;;13.90;99.90;;;;;;5115145;28;20032;-71
2023/10/27 04:40:57;;;;;;;0.10;0.10;;;13.80;99.90;;;;;;5114721;28;20039;-71
2023/10/27 04:43:22;;;;;;;1.85;1.75;;;13.90;99.90;;;;;;5114968;28;20118;-69
2023/10/27 04:45:48;;;;;;;0.10;0.10;;;13.80;99.90;;;;;;5114572;28;20039;-69
2023/10/27 04:48:14;;;;;;;0.00;0.00;;;13.90;99.90;;;;;;5114988;28;20032;-69
2023/10/27 04:50:41;;;;;;;0.00;0.00;;;13.80;99.90;;;;;;5114762;27;20103;-70
2023/10/27 04:53:07;;;;;;;0.00;0.00;;;13.90;99.90;;;;;;5114926;28;20024;-69
2023/10/27 04:55:33;;;;;;;0.10;0.10;;;13.80;99.90;;;;;;5114506;28;20069;-69
2023/10/27 04:57:59;;;;;;;4.63;1.02;;;13.80;99.90;;;;;;5114531;28;20035;-69
2023/10/27 05:00:25;;;;;;;0.43;0.43;;;13.60;99.90;;;;;;5114676;28;20528;-69
2023/10/27 05:02:53;;;;;;;0.05;0.05;;;13.70;99.90;;;;;;5100229;28;20452;-68
2023/10/27 05:05:20;;;;;;;0.00;0.00;;;13.70;99.90;;;;;;5100181;28;20059;-68
2023/10/27 05:07:47;;;;;;;0.00;0.00;;;13.70;99.90;;;;;;5106082;28;20015;-69
2023/10/27 05:10:13;;;;;;;0.00;0.00;;;13.70;99.90;;;;;;5093651;28;20016;-69
2023/10/27 05:12:39;;;;;;;1.55;0.65;;;13.70;99.90;;;;;;5093751;28;20472;-69
2023/10/27 05:15:05;;;;;;;0.03;0.03;;;13.60;99.90;;;;;;5097692;28;20357;-72
2023/10/27 05:17:35;;;;;;;0.10;0.10;;;13.70;99.90;;;;;;5095973;28;20077;-68
2023/10/27 05:20:02;;;;;;;0.00;0.00;;;13.60;99.90;;;;;;5110654;28;20092;-69
2023/10/27 05:22:30;;;;;;;0.10;0.10;;;14.00;99.90;;;;;;5104135;28;20016;-69
2023/10/27 05:24:57;;;;;;;0.00;0.00;;;13.90;99.90;;;;;;5092914;28;20040;-69
2023/10/27 05:27:24;;;;;;;0.00;0.00;;;14.00;99.90;;;;;;5092297;28;20015;-68
2023/10/27 05:29:50;;;;;;;0.00;0.00;;;14.00;99.90;;;;;;5093752;28;20028;-69
2023/10/27 05:32:17;;;;;;;0.00;0.00;;;14.00;99.90;;;;;;5092102;28;20438;-70
2023/10/27 05:34:44;;;;;;;0.10;0.08;;;13.90;99.90;;;;;;5093692;28;20043;-70
2023/10/27 05:37:10;;;;;;;0.00;0.00;;;14.00;99.90;;;;;;5091965;28;20099;-70
2023/10/27 05:39:35;;;;;;;0.35;0.35;;;14.10;99.90;;;;;;5093262;28;20093;-70
2023/10/27 05:42:01;;;;;;;0.00;0.00;;;14.10;99.90;;;;;;5093329;28;20107;-70
2023/10/27 05:44:27;;;;;;;0.00;0.00;;;14.00;99.90;;;;;;5093531;28;20065;-70
2023/10/27 05:46:53;;;;;;;0.00;0.00;;;14.00;99.90;;;;;;5093132;28;20020;-70
2023/10/27 05:49:19;;;;;;;0.00;0.00;;;14.10;99.90;;;;;;5093680;28;20047;-69
2023/10/27 05:51:47;;;;;;;0.00;0.00;;;14.00;99.90;;;;;;5093233;28;20028;-69
2023/10/27 05:54:12;;;;;;;0.22;0.22;;;13.80;99.90;;;;;;5092818;28;20012;-69
2023/10/27 05:56:38;;;;;;;0.00;0.00;;;14.00;99.90;;;;;;5111190;27;20028;-69
2023/10/27 05:59:05;;;;;;;0.00;0.00;;;14.10;99.90;;;;;;5081572;28;20032;-72
2023/10/27 06:01:32;;;;;;;0.30;0.30;;;13.90;99.90;;;;;;5094409;27;20111;-71
2023/10/27 06:03:59;;;;;;;0.00;0.00;;;13.60;99.90;;;;;;5096544;27;20024;-72
2023/10/27 06:06:27;;;;;;;1.08;0.98;;;13.70;99.90;;;;;;5118738;27;20552;-72
2023/10/27 06:08:53;;;;;;;1.10;1.10;;;13.70;99.90;;;;;;5109929;27;20045;-72
2023/10/27 06:11:19;;;;;;;0.10;0.10;;;13.70;99.90;;;;;;5097673;27;20107;-72
2023/10/27 06:13:45;;;;;;;2.20;1.08;;;13.70;99.90;;;;;;5091680;28;20115;-72
2023/10/27 06:16:11;;;;;;;0.38;0.38;;;13.90;99.90;;;;;;5080150;28;20498;-72
2023/10/27 06:18:38;;;;;;;2.28;0.47;;;13.70;99.90;;;;;;5108089;27;20024;-72
2023/10/27 06:21:04;;;;;;;0.15;0.15;;;13.30;99.90;;;;;;5112814;27;20035;-71
2023/10/27 06:23:31;;;;;;;4.22;1.80;;;13.30;99.90;;;;;;5123537;27;20022;-72
2023/10/27 06:25:57;;;;;;;1.30;1.20;;;13.20;99.90;;;;;;5116547;27;20027;-72
2023/10/27 06:28:22;;;;;;;0.25;0.25;;;13.10;99.90;;;;;;5118846;28;20035;-72
2023/10/27 06:30:48;;;;;;;0.82;0.80;;;13.10;99.90;;;;;;5119432;28;20062;-71
2023/10/27 06:33:14;;;;;;;0.00;0.00;;;13.30;99.90;;;;;;5130180;27;20114;-72
2023/10/27 06:35:40;;;;;;;2.53;1.60;;;13.40;99.90;;;;;;5122075;28;20483;-71
2023/10/27 06:38:06;;;;;;;0.60;0.60;;;13.30;99.90;;;;;;5119040;28;20107;-71
2023/10/27 06:40:31;;;;;;;2.92;2.60;;;13.30;99.90;;;;;;5115688;27;20027;-71
2023/10/27 06:42:57;;;;;;;0.93;0.75;;;13.10;99.90;;;;;;5120582;28;20118;-71
2023/10/27 06:45:23;;;;;;;0.10;0.10;;;13.20;99.90;;;;;;5127222;27;20031;-72
2023/10/27 06:47:49;;;;;;;0.10;0.10;;;13.40;99.90;;;;;;5119861;28;20020;-72
2023/10/27 06:50:15;;;;;;;0.32;0.32;;;13.50;99.90;;;;;;5116137;27;20399;-73
2023/10/27 06:52:41;;;;;;;3.17;1.05;;;13.40;99.90;;;;;;5115092;27;20027;-71
2023/10/27 06:55:07;;;;;;;0.82;0.82;;;13.40;99.90;;;;;;5120091;27;20032;-72
2023/10/27 06:57:34;;;;;;;1.65;1.13;;;13.40;99.90;;;;;;5125726;27;20015;-72
2023/10/27 07:00:01;;;;;;;1.55;1.17;;;13.60;99.90;;;;;;5123478;27;20051;-72
2023/10/27 07:02:27;;;;;;;0.28;0.28;;;13.70;99.90;;;;;;5122732;27;20371;-70
2023/10/27 07:04:52;;;;;;;0.50;0.50;;;13.70;99.90;;;;;;5123582;27;20050;-72
2023/10/27 07:07:19;;;;;;;1.38;0.40;;;13.60;99.90;;;;;;5121843;27;20036;-72
2023/10/27 07:09:44;;;;;;;0.10;0.10;;;13.60;99.90;;;;;;5106716;27;20085;-72
2023/10/27 07:12:10;;;;;;;0.57;0.57;;;13.70;99.90;;;;;;5101025;27;20419;-72
2023/10/27 07:14:36;;;;;;;0.73;0.73;;;13.50;99.90;;;;;;5097816;27;20066;-71
2023/10/27 07:17:03;;;;;;;0.68;0.60;;;13.40;99.90;;;;;;5113199;27;20035;-72
2023/10/27 07:19:33;;;;;;;1.70;0.75;;;13.50;99.90;;;;;;5096992;27;20103;-72
2023/10/27 07:22:00;;;;;;;0.88;0.80;;;13.40;99.90;;;;;;5126709;27;20037;-72
2023/10/27 07:24:27;;;;;;;0.55;0.55;;;13.40;99.90;;;;;;5127237;27;20007;-71
2023/10/27 07:26:53;;;;;;;0.73;0.73;;;13.40;99.90;;;;;;5120085;27;20039;-72
2023/10/27 07:29:19;;;;;;;0.00;0.00;;;13.70;99.90;;;;;;5117424;27;20023;-72
2023/10/27 07:31:44;;;;;;;0.10;0.10;;;13.80;99.90;;;;;;5126372;27;20038;-72
2023/10/27 07:34:10;;;;;;;0.75;0.75;;;13.90;99.90;;;;;;5116189;27;20071;-72
2023/10/27 07:36:36;;;;;;;0.88;0.60;;;13.80;99.90;;;;;;5108613;27;20085;-72
2023/10/27 07:39:02;;;;;;;0.55;0.55;;;13.50;99.90;;;;;;5094970;28;20165;-72
2023/10/27 07:41:28;;;;;;;2.10;1.45;;;13.60;99.90;;;;;;5097196;27;20495;-72
2023/10/27 07:43:53;;;;;;;0.98;0.98;;;13.40;99.90;;;;;;5113574;27;20098;-72
2023/10/27 07:46:19;;;;;;;0.10;0.10;;;13.30;99.90;;;;;;5104065;27;20175;-72
2023/10/27 07:48:45;;;;;;;0.47;0.47;;;13.40;99.90;;;;;;5120401;27;20463;-72
2023/10/27 07:51:10;;;;;;;0.00;0.00;;;13.30;99.90;;;;;;5100670;27;20036;-72
2023/10/27 07:53:37;;;;;;;0.98;0.60;;;13.50;99.90;;;;;;5094511;28;20028;-72
2023/10/27 07:56:04;;;;;;;0.00;0.00;;;13.50;99.90;;;;;;5111409;27;20024;-72
2023/10/27 07:58:30;;;;;;;0.00;0.00;;;13.60;99.90;;;;;;5110351;27;20084;-72
2023/10/27 08:00:56;;;;;;;0.45;0.45;;;13.80;99.90;;;;;;5108508;27;20036;-73
2023/10/27 08:03:22;;;;;;;0.63;0.63;;;13.80;99.90;;;;;;5098022;27;20035;-74
2023/10/27 08:05:49;;;;;;;0.08;0.08;;;13.80;99.90;;;;;;5106010;27;20431;-74
2023/10/27 08:08:15;;;;;;;4.55;1.17;;;13.90;99.90;;;;;;5101419;27;20024;-73
2023/10/27 08:10:44;;;;;;;0.30;0.30;;;13.90;99.90;;;;;;5104865;27;20034;-73
2023/10/27 08:13:10;;;;;;;0.10;0.10;;;13.70;99.90;;;;;;5100412;27;20031;-74
2023/10/27 08:15:36;;;;;;;0.10;0.10;;;13.80;99.90;;;;;;5096966;27;20373;-73
2023/10/27 08:18:03;;;;;;;0.32;0.32;;;13.90;99.90;;;;;;5104426;27;20016;-74
2023/10/27 08:20:29;;;;;;;9.35;0.43;;;13.70;99.90;;;;;;5104901;27;20042;-74
2023/10/27 08:22:55;;;;;;;1.00;1.00;;;13.60;99.90;;;;;;5130743;27;20111;-73
2023/10/27 08:25:22;;;;;;;0.15;0.15;;;13.60;99.90;;;;;;5120320;27;20528;-74
2023/10/27 08:27:49;;;;;;;1.27;1.25;;;13.60;99.90;;;;;;5118867;27;20059;-73
2023/10/27 08:30:16;;;;;;;4.75;1.48;;;13.50;99.90;;;;;;5118579;27;20043;-73
2023/10/27 08:32:41;;;;;;;0.88;0.80;;;13.70;99.90;;;;;;5130647;27;20030;-70
2023/10/27 08:35:07;;;;;;;0.50;0.50;;;13.50;99.90;;;;;;5128571;27;20027;-72
2023/10/27 08:37:33;;;;;;;1.30;1.23;;;13.50;99.90;;;;;;5120717;27;20027;-73
2023/10/27 08:39:59;;;;;;;0.10;0.10;;;13.70;99.90;;;;;;5118314;27;20030;-72
2023/10/27 08:42:28;;;;;;;0.55;0.55;;;13.50;99.90;;;;;;5119206;27;20402;-71
2023/10/27 08:44:55;;;;;;;0.30;0.30;;;13.40;99.90;;;;;;5129815;27;20117;-72
2023/10/27 08:47:22;;;;;;;5.47;1.67;;;13.50;99.90;;;;;;5124297;27;20028;-71
2023/10/27 08:49:47;;;;;;;0.35;0.35;;;13.30;99.90;;;;;;5114443;28;20023;-72
2023/10/27 08:52:15;;;;;;;0.73;0.73;;;13.60;99.90;;;;;;5117506;27;20024;-71
2023/10/27 08:54:41;;;;;;;0.47;0.32;;;13.70;99.90;;;;;;5118518;27;20052;-72
2023/10/27 08:57:08;;;;;;;0.15;0.15;;;13.50;99.90;;;;;;5123451;27;20061;-72
2023/10/27 08:59:35;;;;;;;1.75;1.15;;;13.50;99.90;;;;;;5114342;27;20027;-72
2023/10/27 09:02:01;;;;;;;0.35;0.35;;;13.60;99.90;;;;;;5117307;27;20035;-72
2023/10/27 09:04:27;;;;;;;0.28;0.28;;;13.70;99.90;;;;;;5119813;27;20027;-71
2023/10/27 09:06:53;;;;;;;0.00;0.00;;;13.70;99.90;;;;;;5129483;27;20037;-71
2023/10/27 09:09:20;;;;;;;0.20;0.20;;;13.70;99.90;;;;;;5115686;27;20025;-71
2023/10/27 09:11:48;;;;;;;2.90;0.82;;;13.90;99.90;;;;;;5104397;27;20039;-71
2023/10/27 09:14:32;;;;;;;1.45;0.63;;;13.70;99.90;;;;;;5100673;27;20071;-71
2023/10/27 09:17:11;;;;;;;1.08;0.77;;;13.80;99.90;;;;;;5108288;27;20085;-72
2023/10/27 09:19:39;;;;;;;0.50;0.50;;;13.80;99.90;;;;;;5097128;27;20116;-71
2023/10/27 09:22:15;;;;;;;0.30;0.20;;;13.80;99.90;;;;;;5125477;27;20031;-71
2023/10/27 09:24:42;;;;;;;0.50;0.43;;;13.60;99.90;;;;;;5125124;27;20095;-72
2023/10/27 09:27:08;;;;;;;0.45;0.43;;;13.40;99.90;;;;;;5117709;27;20020;-71
2023/10/27 09:29:42;;;;;;;0.20;0.20;;;13.50;99.90;;;;;;5115551;27;20460;-71
2023/10/27 09:32:27;;;;;;;2.17;1.02;;;13.40;99.90;;;;;;5121852;27;20414;-71
2023/10/27 09:35:14;;;;;;;1.77;0.70;;;13.30;99.90;;;;;;5128323;27;20041;-71
2023/10/27 09:37:41;;;;;;;0.52;0.52;;;13.30;99.90;;;;;;5113555;27;20047;-71
2023/10/27 09:40:11;;;;;;;0.28;0.25;;;13.40;99.90;;;;;;5117664;27;20024;-71
2023/10/27 09:42:38;;;;;;;0.10;0.10;;;13.70;99.90;;;;;;5104705;27;20103;-71
2023/10/27 09:45:13;;;;;;;0.30;0.30;;;13.80;99.90;;;;;;5129258;27;20493;-72
2023/10/27 09:47:47;;;;;;;0.88;0.88;;;13.90;99.90;;;;;;5120875;27;20093;-72
2023/10/27 09:50:19;;;;;;;2.42;0.82;;;13.70;99.90;;;;;;5115095;27;20472;-71
2023/10/27 09:52:46;;;;;;;1.08;0.60;;;13.60;99.90;;;;;;5113122;28;20027;-73
2023/10/27 09:55:18;;;;;;;0.20;0.20;;;13.70;99.90;;;;;;5115833;27;20438;-72
2023/10/27 09:57:45;;;;;;;0.75;0.70;;;13.70;99.90;;;;;;5122513;27;20119;-72
2023/10/27 10:00:13;;;;;;;0.30;0.30;;;13.60;99.90;;;;;;5108067;27;20031;-72
2023/10/27 10:02:44;;;;;;;3.83;0.65;;;13.50;99.90;;;;;;5115653;27;20047;-72
2023/10/27 10:05:11;;;;;;;3.67;1.40;;;13.60;99.90;;;;;;5122678;27;20471;-72
2023/10/27 10:07:42;;;;;;;0.00;0.00;;;13.70;99.90;;;;;;5122262;27;20465;-72
2023/10/27 10:10:21;;;;;;;1.10;0.67;;;13.90;99.90;;;;;;5109950;27;20024;-72
2023/10/27 10:13:16;;;;;;;1.08;1.08;;;13.80;99.90;;;;;;5095195;27;20036;-72
2023/10/27 10:15:46;;;;;;;3.55;2.40;;;13.80;99.90;;;;;;5094631;27;20043;-72
2023/10/27 10:18:21;;;;;;;0.70;0.70;;;13.70;99.90;;;;;;5114199;27;20024;-72
2023/10/27 10:20:52;;;;;;;0.45;0.45;;;13.80;99.90;;;;;;5106824;27;20117;-72
2023/10/27 10:23:19;;;;;;;4.40;1.42;;;13.90;99.90;;;;;;5121255;27;20119;-72
2023/10/27 10:25:53;;;;;;;0.10;0.10;;;14.00;99.90;;;;;;5112340;27;20398;-72
2023/10/27 10:28:18;;;;;;;0.20;0.20;;;14.10;99.90;;;;;;5097123;28;20020;-72
2023/10/27 10:30:46;;;;;;;0.45;0.45;;;14.00;99.90;;;;;;5103628;28;20039;-72
2023/10/27 10:33:23;;;;;;;1.45;1.02;;;13.90;99.90;;;;;;5116448;28;20110;-70
2023/10/27 10:35:51;;;;;;;2.50;1.73;;;14.00;99.90;;;;;;5103945;28;20043;-70
2023/10/27 10:38:23;;;;;;;0.80;0.77;;;13.80;99.90;;;;;;5099206;28;20012;-70
2023/10/27 10:40:59;;;;;;;0.10;0.10;;;13.90;99.90;;;;;;5094568;28;20036;-70
2023/10/27 10:43:40;;;;;;;3.10;1.05;;;14.00;99.90;;;;;;5112021;28;20063;-69
2023/10/27 10:46:11;;;;;;;0.10;0.10;;;14.00;99.90;;;;;;5109252;28;20559;-70
2023/10/27 10:48:47;;;;;;;0.45;0.45;;;14.10;99.90;;;;;;5108478;28;20052;-71
2023/10/27 10:51:25;;;;;;;0.55;0.38;;;13.60;99.90;;;;;;5091565;28;20452;-71
2023/10/27 10:53:55;;;;;;;0.85;0.52;;;13.90;99.90;;;;;;5093170;28;20093;-71
2023/10/27 10:56:22;;;;;;;10.40;2.63;;;14.00;99.90;;;;;;5111484;28;20027;-70
2023/10/27 10:58:48;;;;;;;0.60;0.60;;;13.70;99.90;;;;;;5107334;27;20374;-71
2023/10/27 11:01:16;;;;;;;2.05;0.68;;;13.70;99.90;;;;;;5106182;28;20032;-70
2023/10/27 11:03:50;;;;;;;1.20;1.10;;;13.80;99.90;;;;;;5096672;28;20031;-70
2023/10/27 11:06:21;;;;;;;3.70;0.57;;;13.70;99.90;;;;;;5110060;28;20098;-70
2023/10/27 11:08:47;;;;;;;2.10;0.73;;;13.70;99.90;;;;;;5096652;28;20032;-69
2023/10/27 11:11:13;;;;;;;2.60;1.30;;;13.60;99.90;;;;;;5104302;28;20023;-69
2023/10/27 11:13:57;;;;;;;0.88;0.65;;;13.60;99.90;;;;;;5080765;28;20039;-67
2023/10/27 11:16:24;;;;;;;0.20;0.20;;;13.50;99.90;;;;;;5100814;28;20471;-67
2023/10/27 11:19:02;;;;;;;2.78;0.98;;;13.60;99.90;;;;;;5097615;27;20039;-67
2023/10/27 11:21:32;;;;;;;6.03;0.80;;;13.40;99.90;;;;;;5092583;28;20062;-69
2023/10/27 11:23:58;;;;;;;3.42;1.33;;;13.30;99.90;;;;;;5073315;28;20024;-68
2023/10/27 11:26:25;;;;;;;4.55;1.70;;;13.40;99.90;;;;;;5091893;28;20044;-69
2023/10/27 11:28:55;;;;;;;0.82;0.57;;;13.40;99.90;;;;;;5092058;28;20024;-69
2023/10/27 11:31:26;;;;;;;3.72;1.77;;;13.60;99.90;;;;;;5094517;28;20073;-69
2023/10/27 11:33:59;;;;;;;2.75;2.08;;;13.60;99.90;;;;;;5101258;28;20464;-70
2023/10/27 11:36:31;;;;;;;0.05;0.05;;;13.50;99.90;;;;;;5094693;28;20031;-71
2023/10/27 11:39:14;;;;;;;0.10;0.10;;;13.70;99.90;;;;;;5095837;28;20039;-70
2023/10/27 11:41:42;;;;;;;22.75;2.05;;;14.00;99.90;;;;;;5095402;28;20495;-71
2023/10/27 11:44:08;;;;;;;1.83;0.93;;;13.60;99.90;;;;;;5094118;28;20511;-71
2023/10/27 11:46:35;;;;;;;0.47;0.47;;;13.70;99.90;;;;;;5095338;28;20044;-71
2023/10/27 11:49:00;;;;;;;0.25;0.25;;;13.80;99.90;;;;;;5099640;28;20019;-71
2023/10/27 11:51:26;;;;;;;1.27;1.15;;;13.60;99.90;;;;;;5095294;28;20047;-72
2023/10/27 11:53:52;;;;;;;0.82;0.80;;;13.70;99.90;;;;;;5095213;28;20056;-70
2023/10/27 11:56:18;;;;;;;0.88;0.57;;;13.70;99.90;;;;;;5095059;28;20102;-71
2023/10/27 11:58:44;;;;;;;0.38;0.38;;;13.80;99.90;;;;;;5095370;28;20026;-72
2023/10/27 12:01:09;;;;;;;0.35;0.35;;;13.80;99.90;;;;;;5094981;28;20434;-69
2023/10/27 12:03:35;;;;;;;0.93;0.85;;;14.00;99.90;;;;;;5095278;28;20476;-69
2023/10/27 12:06:02;;;;;;;5.93;0.82;;;14.00;99.90;;;;;;5094992;28;20093;-70
2023/10/27 12:08:28;;;;;;;2.30;1.58;;;14.10;99.90;;;;;;5095347;28;20020;-69
2023/10/27 12:10:54;;;;;;;0.20;0.20;;;14.10;99.90;;;;;;5094865;28;20059;-70
2023/10/27 12:13:21;;;;;;;0.93;0.73;;;14.20;99.90;;;;;;5095245;28;20012;-69
2023/10/27 12:15:48;;;;;;;0.00;0.00;;;14.10;99.90;;;;;;5095096;28;20111;-69
2023/10/27 12:18:19;;;;;;;3.50;1.00;;;14.60;99.90;;;;;;5095339;28;20012;-69
2023/10/27 12:20:46;;;;;;;0.38;0.38;;;14.80;99.90;;;;;;5102602;28;20391;-69
2023/10/27 12:23:12;;;;;;;1.50;0.55;;;15.50;99.90;;;;;;5111546;28;20536;-69
2023/10/27 12:25:38;;;;;;;1.55;0.65;;;15.80;99.90;;;;;;5115038;28;20043;-69
2023/10/27 12:28:06;;;;;;;0.43;0.40;;;15.70;99.90;;;;;;5115250;28;20110;-69
2023/10/27 12:30:33;;;;;;;0.10;0.10;;;16.10;99.90;;;;;;5115120;28;20016;-69
2023/10/27 12:32:59;;;;;;;1.45;0.65;;;16.20;99.90;;;;;;5115281;28;20464;-70
2023/10/27 12:35:27;;;;;;;0.00;0.00;;;16.20;99.90;;;;;;5115245;28;20030;-70
2023/10/27 12:37:53;;;;;;;0.68;0.50;;;16.30;99.90;;;;;;5115146;28;20047;-68
2023/10/27 12:40:20;;;;;;;2.90;0.47;;;15.20;99.90;;;;;;5100474;28;20016;-70
2023/10/27 12:42:46;;;;;;;1.00;0.40;;;14.70;99.90;;;;;;5114891;28;20032;-69
2023/10/27 12:45:15;;;;;;;0.00;0.00;;;14.60;99.90;;;;;;5115271;28;20076;-69
2023/10/27 12:47:46;;;;;;;1.50;0.80;;;14.70;99.90;;;;;;5114145;28;20044;-69